Time;durP1;ratioP1;P1;durP2;ratioP2;P2;SDS_P1;SDS_P2;PMS_P1;PMS_P2;Temp;Humidity;BMP_temperature;BMP_pressure;BME280_temperature;BME280_humidity;BME280_pressure;Samples;Min_cycle;Max_cycle;Signal;HPM_P1;HPM_P2
2023/09/23 07:23:20;;;;;;;6.82;5.03;;;;;;;-145.79;100.00;77568.03;5259578;28;20463;-69
2023/09/23 07:25:52;;;;;;;6.85;5.05;;;;;;;-145.79;100.00;77585.00;5267553;28;20029;-70
2023/09/23 07:28:23;;;;;;;5.65;4.50;;;;;;;-145.79;100.00;77563.81;5263087;28;20405;-69
2023/09/23 07:30:55;;;;;;;7.53;4.20;;;;;;;-145.79;100.00;77548.97;5267139;28;20033;-69
2023/09/23 07:33:27;;;;;;;8.70;5.47;;;;;;;-145.79;100.00;77546.84;5270438;28;20468;-69
2023/09/23 07:35:58;;;;;;;6.65;4.30;;;;;;;-145.79;100.00;77546.84;5262768;28;20032;-70
2023/09/23 07:38:29;;;;;;;4.93;4.10;;;;;;;-145.79;100.00;77557.44;5258411;28;20018;-70
2023/09/23 07:41:02;;;;;;;6.70;4.45;;;;;;;-145.79;100.00;77551.09;5266003;28;20025;-70
2023/09/23 07:43:34;;;;;;;5.45;4.15;;;;;;;-145.79;100.00;77538.38;5270504;28;20027;-69
2023/09/23 07:46:05;;;;;;;5.65;4.63;;;;;;;-145.79;100.00;77536.25;5270031;28;20471;-70
2023/09/23 07:48:37;;;;;;;8.07;4.43;;;;;;;-145.79;100.00;77536.25;5267214;28;20028;-71
2023/09/23 07:51:09;;;;;;;9.70;4.53;;;;;;;-145.79;100.00;77521.41;5264882;28;20057;-68
2023/09/23 07:53:41;;;;;;;7.00;4.47;;;;;;;-145.79;100.00;77517.16;5266358;28;20388;-68
2023/09/23 07:56:12;;;;;;;5.72;3.95;;;;;;;-145.79;100.00;77515.06;5271623;28;20073;-68
2023/09/23 07:58:43;;;;;;;6.97;4.25;;;;;;;-145.79;100.00;77508.69;5267186;28;20028;-70
2023/09/23 08:01:15;;;;;;;5.07;3.85;;;;;;;-145.79;100.00;77506.56;5269834;28;20104;-70
2023/09/23 08:03:46;;;;;;;7.22;4.40;;;;;;;-145.79;100.00;77504.47;5262103;28;20166;-70
2023/09/23 08:06:17;;;;;;;8.38;5.45;;;;;;;-145.79;100.00;77493.84;5270971;28;20039;-70
2023/09/23 08:08:49;;;;;;;5.63;3.67;;;;;;;-145.79;100.00;77476.91;5268118;28;20029;-69
2023/09/23 08:11:20;;;;;;;10.18;5.00;;;;;;;-145.79;100.00;77485.38;5269873;28;20086;-71
2023/09/23 08:13:51;;;;;;;4.80;3.70;;;;;;;-145.79;100.00;77495.97;5267146;28;20032;-70
2023/09/23 08:16:23;;;;;;;7.40;3.95;;;;;;;-145.79;100.00;77481.13;5265594;28;20391;-71
2023/09/23 08:18:54;;;;;;;8.05;4.55;;;;;;;-145.79;100.00;77483.25;5269105;28;20472;-71
2023/09/23 08:21:26;;;;;;;9.57;5.55;;;;;;;-145.79;99.57;77491.75;5265282;28;20076;-73
2023/09/23 08:23:58;;;;;;;11.63;4.93;;;;;;;-145.79;99.90;77491.75;5265435;28;20524;-73
2023/09/23 08:26:30;;;;;;;7.30;4.38;;;;;;;-145.79;99.62;77483.25;5264678;28;20116;-70
2023/09/23 08:29:02;;;;;;;8.30;4.03;;;;;;;-145.79;98.23;77495.97;5264557;28;20021;-71
2023/09/23 08:31:34;;;;;;;5.57;4.68;;;;;;;-145.79;98.97;77483.25;5269963;28;20032;-71
2023/09/23 08:34:09;;;;;;;4.95;3.63;;;;;;;-145.79;100.00;77447.22;5257613;28;20476;-71
2023/09/23 08:36:40;;;;;;;7.20;4.07;;;;;;;-145.79;98.27;77476.91;5249460;28;20021;-71
2023/09/23 08:39:12;;;;;;;6.18;3.90;;;;;;;-145.79;98.29;77476.91;5250299;28;20479;-70
2023/09/23 08:41:51;;;;;;;9.88;4.70;;;;;;;-145.79;98.74;77466.31;5249714;28;20025;-70
2023/09/23 08:44:22;;;;;;;6.45;4.80;;;;;;;-145.79;98.27;77462.06;5249037;28;20029;-70
2023/09/23 08:46:54;;;;;;;10.80;4.03;;;;;;;-145.79;98.27;77457.81;5253746;28;20028;-72
2023/09/23 08:49:26;;;;;;;7.22;3.30;;;;;;;-145.79;98.13;77436.63;5252109;28;20029;-70
2023/09/23 08:51:59;;;;;;;9.68;4.18;;;;;;;-145.79;97.44;77453.59;5255696;28;20171;-70
2023/09/23 08:54:31;;;;;;;8.38;3.97;;;;;;;-145.79;98.06;77445.09;5253719;28;20032;-70
2023/09/23 08:57:02;;;;;;;9.27;3.33;;;;;;;-145.79;97.38;77447.22;5248916;28;20025;-70
2023/09/23 08:59:34;;;;;;;7.70;4.03;;;;;;;-145.79;96.58;77457.81;5253162;28;20033;-71
2023/09/23 09:02:07;;;;;;;8.38;3.10;;;;;;;-145.79;97.11;77442.97;5244026;28;20045;-69
2023/09/23 09:04:38;;;;;;;4.25;3.10;;;;;;;-145.79;95.97;77462.06;5246674;28;20034;-71
2023/09/23 09:07:09;;;;;;;5.85;3.42;;;;;;;-145.79;96.28;77455.69;5255161;28;20031;-72
2023/09/23 09:09:41;;;;;;;7.15;3.38;;;;;;;-145.79;96.96;77445.09;5246797;28;20472;-71
2023/09/23 09:12:12;;;;;;;6.05;3.40;;;;;;;-145.79;97.49;77436.63;5253776;28;20025;-69
2023/09/23 09:14:50;;;;;;;6.38;3.40;;;;;;;-145.79;95.88;77434.50;5254126;28;20040;-71
2023/09/23 09:17:22;;;;;;;8.48;3.65;;;;;;;-145.79;96.65;77419.66;5248083;28;20460;-70
2023/09/23 09:19:53;;;;;;;5.68;2.95;;;;;;;-145.79;95.01;77415.44;5244783;28;20025;-71
2023/09/23 09:22:24;;;;;;;5.22;2.80;;;;;;;-145.79;95.10;77411.19;5251638;28;20546;-71
2023/09/23 09:24:56;;;;;;;6.88;3.20;;;;;;;-145.79;93.61;77409.06;5251615;28;20029;-71
2023/09/23 09:27:28;;;;;;;5.90;2.60;;;;;;;-145.79;93.55;77417.53;5256066;28;20042;-71
2023/09/23 09:29:59;;;;;;;6.88;2.47;;;;;;;-145.79;93.21;77423.91;5250394;28;20485;-70
2023/09/23 09:32:31;;;;;;;4.53;2.67;;;;;;;-145.79;92.29;77428.16;5256135;28;20033;-70
2023/09/23 09:35:05;;;;;;;5.10;2.92;;;;;;;-145.79;93.15;77432.38;5252153;28;20029;-71
2023/09/23 09:37:41;;;;;;;4.13;2.50;;;;;;;-145.79;93.26;77423.91;5255020;28;20069;-71
2023/09/23 09:40:21;;;;;;;6.03;2.80;;;;;;;-145.79;93.92;77409.06;5243469;28;20428;-70
2023/09/23 09:42:54;;;;;;;5.45;3.00;;;;;;;-145.79;93.05;77430.25;5232305;28;20167;-68
2023/09/23 09:45:27;;;;;;;4.47;2.70;;;;;;;-145.79;93.25;77440.88;5246377;28;20104;-71
2023/09/23 09:48:00;;;;;;;5.50;2.42;;;;;;;-145.79;93.03;77436.63;5239535;28;20079;-68
2023/09/23 09:50:34;;;;;;;4.90;2.60;;;;;;;-145.79;93.87;77426.03;5251366;28;20136;-70
2023/09/23 09:53:06;;;;;;;5.13;2.65;;;;;;;-145.79;92.62;77432.38;5247173;28;20036;-69
2023/09/23 09:55:38;;;;;;;9.65;2.95;;;;;;;-145.79;93.65;77434.50;5247419;28;20032;-68
2023/09/23 09:58:09;;;;;;;3.83;2.55;;;;;;;-145.79;93.51;77409.06;5239714;28;20876;-69
2023/09/23 10:00:43;;;;;;;3.90;2.10;;;;;;;-145.79;92.09;77409.06;5247502;28;20069;-69
2023/09/23 10:03:15;;;;;;;7.07;2.45;;;;;;;-145.79;93.09;77415.44;5242414;28;20038;-68
2023/09/23 10:05:51;;;;;;;7.05;3.80;;;;;;;-145.79;92.91;77426.03;5251246;28;20095;-69
2023/09/23 10:08:24;;;;;;;4.50;2.80;;;;;;;-145.79;93.43;77415.44;5243764;28;20084;-70
2023/09/23 10:11:04;;;;;;;5.07;2.40;;;;;;;-145.79;93.50;77400.59;5252599;28;20134;-70
2023/09/23 10:13:35;;;;;;;4.22;2.47;;;;;;;-145.79;92.85;77394.22;5248854;28;20348;-70
2023/09/23 10:16:17;;;;;;;11.13;7.18;;;;;;;-145.79;92.45;77392.13;5251618;28;20484;-70
2023/09/23 10:18:56;;;;;;;6.00;3.72;;;;;;;-145.79;92.31;77394.22;5251072;28;20059;-69
2023/09/23 10:21:28;;;;;;;7.55;2.28;;;;;;;-145.79;92.14;77370.91;5249001;28;20045;-69
2023/09/23 10:24:00;;;;;;;4.75;2.53;;;;;;;-145.79;91.61;77373.03;5251905;28;20039;-69
2023/09/23 10:26:31;;;;;;;7.97;5.90;;;;;;;-145.79;92.16;77373.03;5253473;28;20204;-69
2023/09/23 10:29:04;;;;;;;3.95;2.55;;;;;;;-145.79;92.21;77381.50;5245766;28;20104;-69
2023/09/23 10:31:35;;;;;;;7.13;2.88;;;;;;;-145.79;91.48;77375.16;5247902;28;20124;-70
2023/09/23 10:34:08;;;;;;;4.95;2.72;;;;;;;-145.79;91.40;77381.50;5241730;28;20112;-69
2023/09/23 10:36:40;;;;;;;5.53;3.47;;;;;;;-145.79;91.47;77375.16;5247292;28;20362;-69
2023/09/23 10:39:15;;;;;;;6.03;2.88;;;;;;;-145.79;91.72;77379.41;5245959;28;20032;-68
2023/09/23 10:41:47;;;;;;;5.63;2.80;;;;;;;-145.79;90.99;77392.13;5251557;28;20060;-70
2023/09/23 10:44:23;;;;;;;3.38;2.85;;;;;;;-145.79;90.17;77390.00;5250606;28;20029;-69
2023/09/23 10:46:54;;;;;;;4.43;2.90;;;;;;;-145.79;89.02;77394.22;5248282;28;20079;-70
2023/09/23 10:49:27;;;;;;;4.25;3.10;;;;;;;-145.79;89.28;77398.47;5246634;28;20084;-70
2023/09/23 10:51:58;;;;;;;4.40;2.95;;;;;;;-145.79;90.08;77394.22;5251732;28;20021;-69
2023/09/23 10:54:30;;;;;;;5.95;2.85;;;;;;;-145.79;89.20;77392.13;5249934;28;20033;-69
2023/09/23 10:57:01;;;;;;;4.65;2.60;;;;;;;-145.79;89.05;77402.72;5245300;28;20026;-68
2023/09/23 10:59:33;;;;;;;4.30;2.60;;;;;;;-145.79;89.37;77406.94;5250211;28;20508;-69
2023/09/23 11:02:05;;;;;;;5.43;2.83;;;;;;;-145.79;89.71;77419.66;5252507;28;20476;-70
2023/09/23 11:04:37;;;;;;;6.22;3.15;;;;;;;-145.79;89.77;77421.78;5249685;28;20156;-68
2023/09/23 11:07:09;;;;;;;4.93;3.97;;;;;;;-145.79;90.90;77415.44;5247653;28;20174;-69
2023/09/23 11:09:47;;;;;;;5.07;3.00;;;;;;;-145.79;91.03;77415.44;5248560;28;20060;-67
2023/09/23 11:12:19;;;;;;;10.23;6.60;;;;;;;-145.79;90.44;77396.34;5246731;28;20025;-68
2023/09/23 11:14:50;;;;;;;4.35;3.42;;;;;;;-145.79;89.84;77402.72;5250296;28;20029;-67
2023/09/23 11:17:30;;;;;;;7.28;3.30;;;;;;;-145.79;90.79;77381.50;5245560;28;20017;-68
2023/09/23 11:20:06;;;;;;;4.03;2.78;;;;;;;-145.79;89.48;77379.41;5247545;28;20022;-66
2023/09/23 11:22:41;;;;;;;37.17;33.45;;;;;;;-145.79;89.07;77375.16;5248019;28;20038;-69
2023/09/23 11:25:12;;;;;;;6.72;4.03;;;;;;;-145.79;88.47;77381.50;5251593;28;20032;-67
2023/09/23 11:27:47;;;;;;;5.07;3.40;;;;;;;-145.79;86.91;77394.22;5253042;28;20477;-68
2023/09/23 11:30:19;;;;;;;4.45;2.90;;;;;;;-145.79;86.99;77373.03;5244849;28;20048;-68
2023/09/23 11:32:52;;;;;;;5.32;3.17;;;;;;;-145.79;86.32;77360.31;5238524;28;20021;-68
2023/09/23 11:35:23;;;;;;;6.22;3.45;;;;;;;-145.79;86.30;77332.75;5241391;28;20022;-68
2023/09/23 11:37:55;;;;;;;7.13;2.95;;;;;;;-145.79;86.75;77326.41;5239541;28;20032;-67
2023/09/23 11:40:27;;;;;;;5.07;3.03;;;;;;;-145.79;84.42;77328.53;5239387;28;20032;-68
2023/09/23 11:42:59;;;;;;;4.72;2.60;;;;;;;-145.79;83.71;77334.88;5243784;28;20026;-67
2023/09/23 11:45:32;;;;;;;3.33;2.53;;;;;;;-145.79;83.00;77339.13;5244830;28;20082;-67
2023/09/23 11:48:06;;;;;;;3.38;2.67;;;;;;;-145.79;82.68;77326.41;5243235;28;20060;-67
2023/09/23 11:50:38;;;;;;;4.70;2.80;;;;;;;-145.79;82.13;77309.44;5241807;28;20075;-68
2023/09/23 11:53:11;;;;;;;5.40;3.00;;;;;;;-145.79;80.22;77326.41;5240616;28;20026;-68
2023/09/23 11:55:43;;;;;;;4.60;2.75;;;;;;;-145.79;80.64;77328.53;5240012;28;20029;-67
2023/09/23 11:58:14;;;;;;;4.50;2.40;;;;;;;-145.79;80.86;77337.00;5237173;28;20022;-68
2023/09/23 12:00:47;;;;;;;6.32;3.35;;;;;;;-145.79;80.86;77317.94;5240702;28;20028;-69
2023/09/23 12:03:19;;;;;;;5.32;2.78;;;;;;;-145.79;80.90;77324.28;5244093;28;20040;-69
2023/09/23 12:05:50;;;;;;;2.75;2.38;;;;;;;-145.79;81.35;77339.13;5244198;28;20021;-67
2023/09/23 12:08:21;;;;;;;5.57;2.55;;;;;;;-145.79;81.80;77341.25;5238451;28;20017;-67
2023/09/23 12:10:54;;;;;;;6.00;3.08;;;;;;;-145.79;81.60;77362.44;5243294;28;20033;-67
2023/09/23 12:13:26;;;;;;;4.93;2.85;;;;;;;-145.79;81.26;77392.13;5243959;28;20033;-68
2023/09/23 12:15:57;;;;;;;2.90;2.20;;;;;;;-145.79;83.12;77392.13;5243128;28;20029;-68
2023/09/23 12:18:29;;;;;;;3.25;2.28;;;;;;;-145.79;82.75;77394.22;5251532;28;20043;-68
2023/09/23 12:21:00;;;;;;;4.93;3.15;;;;;;;-145.79;83.28;77387.88;5251703;28;20523;-67
2023/09/23 12:23:32;;;;;;;9.07;3.30;;;;;;;-145.79;84.47;77366.69;5242760;28;20038;-67
2023/09/23 12:26:04;;;;;;;6.78;3.05;;;;;;;-145.79;84.46;77358.19;5238973;28;20029;-68
2023/09/23 12:28:36;;;;;;;7.50;5.65;;;;;;;-145.79;83.94;77360.31;5242055;28;20021;-69
2023/09/23 12:31:08;;;;;;;4.95;2.45;;;;;;;-145.79;83.50;77362.44;5245130;28;20056;-70
2023/09/23 12:33:40;;;;;;;4.72;3.22;;;;;;;-145.79;83.19;77381.50;5244613;28;20049;-70
2023/09/23 12:36:12;;;;;;;5.00;2.30;;;;;;;-145.79;84.23;77377.28;5243452;28;20025;-69
2023/09/23 12:38:43;;;;;;;5.30;3.33;;;;;;;-145.79;87.41;77402.72;5246166;28;20037;-69
2023/09/23 12:41:16;;;;;;;4.72;2.72;;;;;;;-145.79;89.30;77423.91;5243889;28;20026;-69
2023/09/23 12:43:47;;;;;;;4.20;2.90;;;;;;;-145.79;91.29;77423.91;5244990;28;20071;-69
2023/09/23 12:46:18;;;;;;;4.28;2.63;;;;;;;-145.79;91.40;77459.94;5244902;28;20060;-68
2023/09/23 12:48:50;;;;;;;4.20;2.00;;;;;;;-145.79;91.90;77472.66;5242551;28;20030;-69
2023/09/23 12:51:21;;;;;;;3.03;1.85;;;;;;;-145.79;92.19;77489.63;5237696;28;20106;-69
2023/09/23 12:53:52;;;;;;;3.80;2.28;;;;;;;-145.79;92.79;77481.13;5239605;28;20473;-69
2023/09/23 12:56:23;;;;;;;2.75;1.75;;;;;;;-145.79;92.91;77489.63;5244585;28;20392;-69
2023/09/23 12:58:55;;;;;;;3.10;1.60;;;;;;;-145.79;92.96;77502.34;5244068;28;20116;-69
2023/09/23 13:01:26;;;;;;;2.22;1.77;;;;;;;-145.79;93.47;77487.50;5241232;28;20045;-69
2023/09/23 13:03:58;;;;;;;4.05;1.90;;;;;;;-145.79;92.23;77481.13;5244411;28;20048;-69
2023/09/23 13:06:30;;;;;;;2.60;1.48;;;;;;;-145.79;92.09;77491.75;5242005;28;20025;-69
2023/09/23 13:09:02;;;;;;;2.95;1.63;;;;;;;-145.79;92.89;77504.47;5243717;28;20053;-69
2023/09/23 13:11:33;;;;;;;3.45;1.90;;;;;;;-145.79;92.56;77502.34;5242091;28;20104;-69
2023/09/23 13:14:04;;;;;;;4.28;3.88;;;;;;;-145.79;92.24;77498.09;5247460;28;20056;-68
2023/09/23 13:16:36;;;;;;;2.72;1.73;;;;;;;-145.79;92.87;77491.75;5244174;28;20035;-69
2023/09/23 13:19:07;;;;;;;3.83;1.67;;;;;;;-145.79;92.88;77474.78;5242864;28;20057;-69
2023/09/23 13:21:38;;;;;;;5.07;1.50;;;;;;;-145.79;92.02;77479.03;5244289;28;20087;-68
2023/09/23 13:24:10;;;;;;;3.25;1.35;;;;;;;-145.79;91.84;77487.50;5245368;28;20522;-69
2023/09/23 13:26:43;;;;;;;4.72;1.63;;;;;;;-145.79;91.86;77481.13;5238822;28;20034;-69
2023/09/23 13:29:14;;;;;;;3.58;1.67;;;;;;;-145.79;92.27;77483.25;5243573;28;20017;-68
2023/09/23 13:31:46;;;;;;;3.90;1.80;;;;;;;-145.79;92.29;77466.31;5237127;28;20618;-68
2023/09/23 13:34:17;;;;;;;3.13;1.88;;;;;;;-145.79;91.95;77464.19;5247467;28;20104;-69
2023/09/23 13:36:49;;;;;;;4.13;1.88;;;;;;;-145.79;92.15;77466.31;5243770;28;20033;-69
2023/09/23 13:39:21;;;;;;;10.38;9.48;;;;;;;-145.79;91.19;77470.53;5245274;28;20024;-69
2023/09/23 13:41:53;;;;;;;4.03;1.90;;;;;;;-145.79;91.98;77464.19;5244597;28;20057;-69
2023/09/23 13:44:25;;;;;;;2.60;2.08;;;;;;;-145.79;91.88;77466.31;5244421;28;20135;-69
2023/09/23 13:46:56;;;;;;;4.43;1.73;;;;;;;-145.79;91.18;77447.22;5243400;28;20480;-69
2023/09/23 13:49:27;;;;;;;2.92;1.70;;;;;;;-145.79;91.56;77445.09;5244003;28;20488;-69
2023/09/23 13:52:00;;;;;;;3.75;2.22;;;;;;;-145.79;91.81;77404.84;5239396;28;20029;-69
2023/09/23 13:54:31;;;;;;;5.95;2.60;;;;;;;-145.79;90.40;77400.59;5243695;28;20022;-68
2023/09/23 13:57:03;;;;;;;4.57;2.10;;;;;;;-145.79;89.06;77428.16;5243310;28;20026;-69
2023/09/23 13:59:34;;;;;;;3.58;2.63;;;;;;;-145.79;89.00;77428.16;5246352;28;20021;-69
2023/09/23 14:02:10;;;;;;;6.45;2.30;;;;;;;-145.79;88.73;77449.34;5244243;28;20041;-69
2023/09/23 14:04:42;;;;;;;6.22;4.80;;;;;;;-145.79;89.05;77453.59;5245384;28;20502;-68
2023/09/23 14:07:14;;;;;;;4.57;2.80;;;;;;;-145.79;89.53;77445.09;5236800;28;20079;-68
2023/09/23 14:09:45;;;;;;;4.30;2.60;;;;;;;-145.79;88.98;77447.22;5239105;28;20025;-69
2023/09/23 14:12:17;;;;;;;3.03;1.90;;;;;;;-145.79;89.50;77432.38;5241320;28;20564;-69
2023/09/23 14:14:48;;;;;;;4.25;2.13;;;;;;;-145.79;89.71;77430.25;5241629;28;20098;-68
2023/09/23 14:17:22;;;;;;;5.55;3.15;;;;;;;-145.79;89.31;77453.59;5242546;28;20013;-68
2023/09/23 14:19:53;;;;;;;4.90;3.10;;;;;;;-145.79;91.16;77449.34;5245770;28;20487;-68
2023/09/23 14:22:26;;;;;;;6.35;2.90;;;;;;;-145.79;91.30;77466.31;5242168;28;20041;-68
2023/09/23 14:24:57;;;;;;;4.47;2.78;;;;;;;-145.79;91.19;77474.78;5243136;28;20033;-68
2023/09/23 14:27:29;;;;;;;4.97;2.85;;;;;;;-145.79;90.79;77479.03;5241475;28;20071;-67
2023/09/23 14:30:00;;;;;;;4.38;2.95;;;;;;;-145.79;90.63;77487.50;5241153;28;20407;-74
2023/09/23 14:32:32;;;;;;;4.22;2.80;;;;;;;-145.79;91.67;77500.22;5238974;28;20037;-70
2023/09/23 14:35:03;;;;;;;4.78;2.72;;;;;;;-145.79;92.21;77508.69;5234872;28;20037;-69
2023/09/23 14:37:35;;;;;;;3.47;2.53;;;;;;;-145.79;92.75;77508.69;5243670;28;20030;-68
2023/09/23 14:40:07;;;;;;;6.18;4.85;;;;;;;-145.79;92.61;77502.34;5241666;28;20034;-69
2023/09/23 14:42:38;;;;;;;6.32;3.67;;;;;;;-145.79;93.63;77495.97;5238044;28;20492;-70
2023/09/23 14:45:09;;;;;;;7.20;2.85;;;;;;;-145.79;94.49;77515.06;5242623;28;20489;-68
2023/09/23 14:47:42;;;;;;;7.10;2.78;;;;;;;-145.79;94.50;77510.81;5241485;28;20508;-68
2023/09/23 14:50:13;;;;;;;4.93;3.03;;;;;;;-145.79;94.87;77512.94;5240227;28;20055;-68
2023/09/23 14:52:44;;;;;;;3.33;2.30;;;;;;;-145.79;95.01;77508.69;5239675;28;22248;-70
2023/09/23 14:55:16;;;;;;;5.95;2.90;;;;;;;-145.79;95.47;77510.81;5245886;28;20045;-72
2023/09/23 14:57:48;;;;;;;6.93;2.90;;;;;;;-145.79;95.43;77504.47;5251734;28;20020;-71
2023/09/23 15:00:19;;;;;;;4.38;3.05;;;;;;;-145.79;95.39;77517.16;5240635;28;20095;-72
2023/09/23 15:02:50;;;;;;;3.53;3.10;;;;;;;-145.79;95.75;77515.06;5243991;28;20025;-69
2023/09/23 15:05:22;;;;;;;4.78;3.25;;;;;;;-145.79;95.63;77508.69;5238382;28;20052;-69
2023/09/23 15:07:53;;;;;;;3.80;3.20;;;;;;;-145.79;95.94;77495.97;5242959;28;20021;-71
2023/09/23 15:10:24;;;;;;;5.00;3.10;;;;;;;-145.79;95.72;77508.69;5242083;28;20022;-71
2023/09/23 15:12:56;;;;;;;4.47;2.70;;;;;;;-145.79;94.69;77485.38;5242280;28;20024;-70
2023/09/23 15:15:27;;;;;;;6.63;3.75;;;;;;;-145.79;95.02;77517.16;5236656;28;20049;-70
2023/09/23 15:17:58;;;;;;;4.78;3.88;;;;;;;-145.79;95.68;77517.16;5236210;28;20052;-70
2023/09/23 15:20:29;;;;;;;6.63;3.88;;;;;;;-145.79;95.49;77517.16;5239439;28;20524;-70
2023/09/23 15:23:01;;;;;;;4.88;3.20;;;;;;;-145.79;96.31;77506.56;5243375;28;20168;-70
2023/09/23 15:25:33;;;;;;;3.97;3.30;;;;;;;-145.79;96.25;77515.06;5244580;28;20021;-68
2023/09/23 15:28:05;;;;;;;6.07;3.50;;;;;;;-145.79;95.92;77506.56;5245657;28;20021;-69
2023/09/23 15:30:36;;;;;;;9.75;4.18;;;;;;;-145.79;95.60;77512.94;5237617;28;20037;-67
2023/09/23 15:33:07;;;;;;;5.47;3.30;;;;;;;-145.79;96.57;77510.81;5239920;28;20064;-70
2023/09/23 15:35:39;;;;;;;4.50;2.80;;;;;;;-145.79;95.85;77500.22;5238765;28;20033;-69
2023/09/23 15:38:12;;;;;;;4.22;2.80;;;;;;;-145.79;95.71;77508.69;5232273;28;20026;-72
2023/09/23 15:40:44;;;;;;;3.92;2.80;;;;;;;-145.79;95.33;77504.47;5234794;28;20099;-70
2023/09/23 15:43:16;;;;;;;4.88;2.60;;;;;;;-145.79;95.07;77510.81;5242605;28;20034;-70
2023/09/23 15:45:47;;;;;;;4.13;3.70;;;;;;;-145.79;95.03;77506.56;5248856;28;20423;-70
2023/09/23 15:48:19;;;;;;;6.43;3.85;;;;;;;-145.79;94.71;77498.09;5250212;28;20029;-71
2023/09/23 15:50:51;;;;;;;5.47;3.88;;;;;;;-145.79;95.14;77495.97;5255127;28;20021;-71
2023/09/23 15:53:22;;;;;;;5.90;2.40;;;;;;;-145.79;94.16;77495.97;5246745;28;20384;-73
2023/09/23 15:55:59;;;;;;;3.25;2.47;;;;;;;-145.79;93.74;77491.75;5257288;28;20428;-72
2023/09/23 15:58:30;;;;;;;3.67;2.40;;;;;;;-145.79;93.67;77476.91;5247326;28;20492;-72
2023/09/23 16:01:01;;;;;;;4.18;3.30;;;;;;;-145.79;91.40;77483.25;5254807;28;20029;-69
2023/09/23 16:03:33;;;;;;;5.38;2.53;;;;;;;-145.79;92.08;77470.53;5254378;28;20120;-72
2023/09/23 16:06:05;;;;;;;9.73;8.00;;;;;;;-145.79;92.16;77470.53;5250749;28;20025;-68
2023/09/23 16:08:36;;;;;;;15.40;13.90;;;;;;;-145.79;90.65;77453.59;5253095;28;20340;-73
2023/09/23 16:11:08;;;;;;;9.57;8.40;;;;;;;-145.79;90.66;77459.94;5245830;28;20032;-74
2023/09/23 16:13:39;;;;;;;3.60;1.83;;;;;;;-145.79;88.71;77483.25;5255700;28;20083;-74
2023/09/23 16:16:11;;;;;;;8.10;2.47;;;;;;;-145.79;87.23;77487.50;5249871;28;20029;-74
2023/09/23 16:18:43;;;;;;;5.03;1.70;;;;;;;-145.79;86.72;77495.97;5249063;28;20103;-75
2023/09/23 16:21:14;;;;;;;4.88;3.22;;;;;;;-145.79;85.71;77517.16;5248172;28;20033;-72
2023/09/23 16:23:46;;;;;;;6.32;2.05;;;;;;;-145.79;85.34;77517.16;5245780;28;20037;-71
2023/09/23 16:26:17;;;;;;;2.40;1.50;;;;;;;-145.79;84.88;77523.53;5243369;28;20033;-72
2023/09/23 16:28:49;;;;;;;3.38;1.40;;;;;;;-145.79;83.57;77529.88;5243421;28;20410;-71
2023/09/23 16:31:20;;;;;;;2.35;1.48;;;;;;;-145.79;83.82;77538.38;5243033;28;20025;-68
2023/09/23 16:33:51;;;;;;;4.88;3.03;;;;;;;-145.79;83.95;77538.38;5242468;28;20526;-68
2023/09/23 16:36:22;;;;;;;2.80;1.80;;;;;;;-145.79;83.83;77538.38;5245389;28;20025;-69
2023/09/23 16:38:54;;;;;;;2.70;1.50;;;;;;;-145.79;83.81;77544.72;5244851;28;20100;-69
2023/09/23 16:41:25;;;;;;;4.05;1.88;;;;;;;-145.79;83.46;77548.97;5242589;28;20308;-69
2023/09/23 16:43:57;;;;;;;4.68;1.67;;;;;;;-145.79;84.16;77548.97;5243420;28;20017;-68
2023/09/23 16:46:29;;;;;;;6.60;4.43;;;;;;;-145.79;85.07;77561.69;5249057;28;20107;-70
2023/09/23 16:49:00;;;;;;;11.40;9.30;;;;;;;-145.79;84.24;77572.28;5247719;28;20591;-72
2023/09/23 16:51:32;;;;;;;6.18;4.63;;;;;;;-145.79;84.84;77563.81;5247183;28;20072;-72
2023/09/23 16:54:03;;;;;;;8.32;5.93;;;;;;;-145.79;84.62;77587.13;5245092;28;20475;-68
